Time;durP1;ratioP1;P1;durP2;ratioP2;P2;SDS_P1;SDS_P2;PMS_P1;PMS_P2;Temp;Humidity;BMP_temperature;BMP_pressure;BME280_temperature;BME280_humidity;BME280_pressure;Samples;Min_cycle;Max_cycle;Signal;HPM_P1;HPM_P2
2021/11/08 00:00:43;;;;;;;9.07;8.00;;;;;;;;;;5156577;27;20669;-89
2021/11/08 00:03:13;;;;;;;11.07;8.63;;;;;;;;;;5156019;27;20705;-89
2021/11/08 00:05:41;;;;;;;11.73;8.90;;;;;;;;;;5156219;27;20190;-89
2021/11/08 00:08:09;;;;;;;11.67;8.50;;;;;;;;;;5155756;27;20662;-89
2021/11/08 00:10:37;;;;;;;13.53;7.90;;;;;;;;;;5156146;27;20257;-89
2021/11/08 00:13:08;;;;;;;12.53;8.13;;;;;;;;;;5155788;27;20242;-89
2021/11/08 00:15:45;;;;;;;14.70;9.80;;;;;;;;;;5155858;27;20635;-89
2021/11/08 00:18:18;;;;;;;10.43;7.90;;;;;;;;;;5155946;27;20192;-89
2021/11/08 00:20:47;;;;;;;9.87;8.87;;;;;;;;;;5156032;27;20281;-90
2021/11/08 00:23:15;;;;;;;11.47;7.47;;;;;;;;;;5155939;27;20232;-89
2021/11/08 00:25:43;;;;;;;8.87;6.97;;;;;;;;;;5155559;27;20569;-88
2021/11/08 00:28:11;;;;;;;7.67;6.87;;;;;;;;;;5155623;27;20200;-89
2021/11/08 00:30:39;;;;;;;9.57;7.73;;;;;;;;;;5155568;27;20256;-88
2021/11/08 00:33:09;;;;;;;11.33;7.90;;;;;;;;;;5155295;27;20678;-89
2021/11/08 00:35:39;;;;;;;11.37;7.97;;;;;;;;;;5155468;27;20204;-88
2021/11/08 00:38:07;;;;;;;11.63;8.63;;;;;;;;;;5155428;27;20194;-89
2021/11/08 00:40:35;;;;;;;11.70;8.97;;;;;;;;;;5155006;27;20581;-89
2021/11/08 00:43:02;;;;;;;9.13;8.20;;;;;;;;;;5155409;27;20696;-89
2021/11/08 00:45:30;;;;;;;10.43;8.37;;;;;;;;;;5155237;27;20246;-88
2021/11/08 00:47:57;;;;;;;11.97;8.17;;;;;;;;;;5155164;27;20193;-88
2021/11/08 00:50:25;;;;;;;10.00;7.17;;;;;;;;;;5154443;27;20285;-88
2021/11/08 00:52:54;;;;;;;9.07;6.83;;;;;;;;;;5155129;27;20279;-87
2021/11/08 00:55:23;;;;;;;8.27;6.20;;;;;;;;;;5155055;27;20282;-88
2021/11/08 00:57:51;;;;;;;12.77;7.47;;;;;;;;;;5154776;27;20326;-88
2021/11/08 01:00:24;;;;;;;17.03;6.50;;;;;;;;;;5155112;27;20239;-88
2021/11/08 01:02:52;;;;;;;12.50;6.57;;;;;;;;;;5154812;27;20188;-89
2021/11/08 01:05:19;;;;;;;8.33;5.90;;;;;;;;;;5154765;27;20224;-88
2021/11/08 01:07:47;;;;;;;10.10;7.10;;;;;;;;;;5155023;27;20189;-89
2021/11/08 01:10:20;;;;;;;13.03;7.20;;;;;;;;;;5154829;27;20229;-89
2021/11/08 01:12:48;;;;;;;12.93;6.80;;;;;;;;;;5154881;27;20188;-88
2021/11/08 01:15:16;;;;;;;9.50;6.70;;;;;;;;;;5154536;27;20721;-89
2021/11/08 01:17:44;;;;;;;8.53;6.00;;;;;;;;;;5154634;27;20200;-90
2021/11/08 01:20:14;;;;;;;8.60;6.07;;;;;;;;;;5154847;27;20249;-90
2021/11/08 01:22:41;;;;;;;9.47;6.37;;;;;;;;;;5154571;27;20192;-90
2021/11/08 01:25:10;;;;;;;11.83;7.03;;;;;;;;;;5154297;27;20237;-90
2021/11/08 01:27:43;;;;;;;14.07;6.87;;;;;;;;;;5154738;27;20276;-90
2021/11/08 01:30:14;;;;;;;10.80;7.87;;;;;;;;;;5154770;27;20221;-91
2021/11/08 01:32:41;;;;;;;8.13;6.03;;;;;;;;;;5155120;27;20665;-90
2021/11/08 01:35:12;;;;;;;10.43;6.83;;;;;;;;;;5154504;27;20215;-90
2021/11/08 01:37:41;;;;;;;11.17;7.83;;;;;;;;;;5154731;27;20246;-90
2021/11/08 01:40:09;;;;;;;11.80;7.53;;;;;;;;;;5155250;27;20193;-89
2021/11/08 01:42:37;;;;;;;16.60;7.63;;;;;;;;;;5158898;27;20202;-88
2021/11/08 01:45:06;;;;;;;11.87;7.60;;;;;;;;;;5158516;27;20251;-88
2021/11/08 01:47:33;;;;;;;8.63;7.40;;;;;;;;;;5158433;27;20191;-88
2021/11/08 01:50:01;;;;;;;10.83;7.60;;;;;;;;;;5158396;27;20197;-87
2021/11/08 01:52:28;;;;;;;13.10;7.73;;;;;;;;;;5158406;27;20744;-88
2021/11/08 01:54:55;;;;;;;9.73;6.50;;;;;;;;;;5158442;27;20254;-88
2021/11/08 01:57:23;;;;;;;9.53;6.93;;;;;;;;;;5158280;27;20193;-88
2021/11/08 01:59:50;;;;;;;6.10;5.37;;;;;;;;;;5158601;27;20250;-88
2021/11/08 02:02:19;;;;;;;9.50;6.40;;;;;;;;;;5158373;27;20193;-88
2021/11/08 02:04:47;;;;;;;8.97;5.80;;;;;;;;;;5158385;27;20273;-89
2021/11/08 02:07:14;;;;;;;10.97;6.30;;;;;;;;;;5158444;27;20199;-89
2021/11/08 02:09:41;;;;;;;10.60;5.90;;;;;;;;;;5158296;27;20672;-88
2021/11/08 02:12:11;;;;;;;9.67;6.73;;;;;;;;;;5157952;27;20250;-90
2021/11/08 02:14:39;;;;;;;13.23;6.60;;;;;;;;;;5158207;27;20730;-90
2021/11/08 02:17:07;;;;;;;10.00;6.47;;;;;;;;;;5158025;27;20192;-90
2021/11/08 02:19:36;;;;;;;11.57;6.53;;;;;;;;;;5157984;27;20248;-90
2021/11/08 02:22:05;;;;;;;7.83;6.07;;;;;;;;;;5157957;27;20202;-88
2021/11/08 02:24:34;;;;;;;8.83;6.63;;;;;;;;;;5158195;27;20237;-88
2021/11/08 02:27:02;;;;;;;9.43;6.80;;;;;;;;;;5157903;27;20246;-89
2021/11/08 02:29:30;;;;;;;8.17;6.77;;;;;;;;;;5158503;27;20585;-89
2021/11/08 02:31:59;;;;;;;6.63;5.87;;;;;;;;;;5157790;27;20258;-89
2021/11/08 02:34:27;;;;;;;13.53;6.47;;;;;;;;;;5157764;27;20215;-89
2021/11/08 02:36:54;;;;;;;11.43;5.40;;;;;;;;;;5157876;27;20199;-90
2021/11/08 02:39:27;;;;;;;10.70;6.37;;;;;;;;;;5157832;27;20249;-90
2021/11/08 02:41:54;;;;;;;10.20;6.37;;;;;;;;;;5157657;27;20183;-89
2021/11/08 02:44:22;;;;;;;13.47;7.10;;;;;;;;;;5157831;27;20565;-89
2021/11/08 02:46:52;;;;;;;8.00;5.73;;;;;;;;;;5157840;27;20191;-90
2021/11/08 02:49:24;;;;;;;9.70;5.97;;;;;;;;;;5157811;27;20192;-89
2021/11/08 02:52:00;;;;;;;11.80;7.17;;;;;;;;;;5157625;27;20209;-89
2021/11/08 02:54:29;;;;;;;9.00;7.53;;;;;;;;;;5157322;27;20652;-89
2021/11/08 02:56:56;;;;;;;10.20;6.90;;;;;;;;;;5157227;27;20201;-89
2021/11/08 02:59:25;;;;;;;9.13;6.43;;;;;;;;;;5157122;27;20230;-88
2021/11/08 03:01:54;;;;;;;13.57;6.93;;;;;;;;;;5157349;27;20287;-89
2021/11/08 03:04:24;;;;;;;5.93;5.40;;;;;;;;;;5157140;27;20234;-88
2021/11/08 03:06:51;;;;;;;10.90;5.87;;;;;;;;;;5157249;27;20657;-88
2021/11/08 03:09:23;;;;;;;9.67;6.13;;;;;;;;;;5157206;27;20198;-88
2021/11/08 03:11:52;;;;;;;11.60;5.43;;;;;;;;;;5157226;27;20623;-87
2021/11/08 03:14:22;;;;;;;7.27;5.47;;;;;;;;;;5157021;27;20201;-87
2021/11/08 03:16:53;;;;;;;10.60;5.80;;;;;;;;;;5157037;27;20181;-88
2021/11/08 03:19:24;;;;;;;8.57;5.63;;;;;;;;;;5156650;27;20178;-87
2021/11/08 03:21:55;;;;;;;13.93;5.87;;;;;;;;;;5156961;27;20188;-87
2021/11/08 03:24:35;;;;;;;7.57;6.57;;;;;;;;;;5156567;27;20213;-87
2021/11/08 03:27:07;;;;;;;6.40;5.63;;;;;;;;;;5156523;27;20194;-87
2021/11/08 03:29:35;;;;;;;11.30;5.80;;;;;;;;;;5156901;27;20616;-88
2021/11/08 03:32:02;;;;;;;8.27;7.47;;;;;;;;;;5156853;27;20198;-88
2021/11/08 03:34:30;;;;;;;7.40;6.37;;;;;;;;;;5156967;27;20190;-88
2021/11/08 03:36:57;;;;;;;9.83;6.07;;;;;;;;;;5156551;27;20278;-87
2021/11/08 03:39:25;;;;;;;9.13;6.93;;;;;;;;;;5156376;27;20255;-87
2021/11/08 03:41:52;;;;;;;7.33;5.30;;;;;;;;;;5156318;27;20194;-87
2021/11/08 03:44:21;;;;;;;11.00;5.73;;;;;;;;;;5156421;27;20213;-87
2021/11/08 03:46:48;;;;;;;6.27;4.97;;;;;;;;;;5156362;27;20193;-88
2021/11/08 03:49:16;;;;;;;8.90;5.00;;;;;;;;;;5156158;27;20201;-88
2021/11/08 03:51:43;;;;;;;9.53;5.30;;;;;;;;;;5156192;27;20285;-87
2021/11/08 03:54:10;;;;;;;10.40;5.60;;;;;;;;;;5155767;27;20216;-88
2021/11/08 03:56:37;;;;;;;6.83;4.60;;;;;;;;;;5155883;27;20305;-88
2021/11/08 03:59:05;;;;;;;9.83;4.80;;;;;;;;;;5155815;27;20248;-88
2021/11/08 04:01:36;;;;;;;8.17;5.70;;;;;;;;;;5155687;27;20663;-90
2021/11/08 04:04:05;;;;;;;5.53;4.70;;;;;;;;;;5155787;27;20202;-88
2021/11/08 04:06:32;;;;;;;12.20;5.07;;;;;;;;;;5155692;27;20194;-92
2021/11/08 04:09:00;;;;;;;5.77;4.00;;;;;;;;;;5133962;27;20195;-88
2021/11/08 04:11:28;;;;;;;7.63;5.10;;;;;;;;;;5134969;27;20658;-88
2021/11/08 04:13:57;;;;;;;6.53;5.07;;;;;;;;;;5135055;27;20275;-88
2021/11/08 04:16:43;;;;;;;13.13;7.80;;;;;;;;;;5134980;27;20671;-87
2021/11/08 04:19:12;;;;;;;14.23;12.20;;;;;;;;;;5135172;27;20263;-89
2021/11/08 04:21:40;;;;;;;13.50;9.23;;;;;;;;;;5134690;27;20201;-88
2021/11/08 04:24:08;;;;;;;11.23;7.37;;;;;;;;;;5134731;27;20275;-89
2021/11/08 04:26:37;;;;;;;7.00;5.57;;;;;;;;;;5135050;27;20191;-88
2021/11/08 04:29:04;;;;;;;10.07;5.70;;;;;;;;;;5134795;27;20604;-88
2021/11/08 04:31:35;;;;;;;7.50;4.90;;;;;;;;;;5134968;27;20202;-88
2021/11/08 04:34:05;;;;;;;28.70;16.87;;;;;;;;;;5134585;27;20218;-88
2021/11/08 04:39:24;;;;;;;13.30;10.07;;;;;;;;;;5093419;27;20692;-88
2021/11/08 04:41:57;;;;;;;13.60;7.13;;;;;;;;;;5134362;27;20231;-89
2021/11/08 04:50:04;;;;;;;278.23;175.60;;;;;;;;;;5123776;27;20191;-89
2021/11/08 04:52:39;;;;;;;134.37;89.23;;;;;;;;;;5134198;27;20182;-88
2021/11/08 04:55:13;;;;;;;16.03;9.63;;;;;;;;;;5134956;27;20214;-89
2021/11/08 04:58:16;;;;;;;9.80;5.43;;;;;;;;;;5133993;27;20242;-89
2021/11/08 05:22:54;;;;;;;10.10;7.80;;;;;;;;;;5112303;27;20194;-89
2021/11/08 05:27:50;;;;;;;9.23;6.27;;;;;;;;;;5133579;27;20208;-90
2021/11/08 05:28:40;;;;;;;7.17;5.07;;;;;;;;;;5133784;27;20217;-90
2021/11/08 05:31:08;;;;;;;6.33;4.70;;;;;;;;;;5134249;27;20263;-90
2021/11/08 05:33:35;;;;;;;7.20;4.17;;;;;;;;;;5133786;27;20255;-90
2021/11/08 05:36:04;;;;;;;8.13;4.90;;;;;;;;;;5133582;27;20215;-91
2021/11/08 05:38:32;;;;;;;12.30;5.30;;;;;;;;;;5133422;27;20195;-90
2021/11/08 05:40:59;;;;;;;9.30;5.17;;;;;;;;;;5133969;27;20190;-90
2021/11/08 05:43:26;;;;;;;20.93;13.00;;;;;;;;;;5133558;27;20234;-89
2021/11/08 05:45:54;;;;;;;44.17;27.43;;;;;;;;;;5133419;28;20233;-89
2021/11/08 05:48:21;;;;;;;41.13;27.57;;;;;;;;;;5133591;28;20190;-90
2021/11/08 05:50:48;;;;;;;49.37;30.73;;;;;;;;;;5133691;28;20648;-90
2021/11/08 05:53:17;;;;;;;84.50;58.43;;;;;;;;;;5133889;28;20642;-89
2021/11/08 05:55:51;;;;;;;79.43;60.53;;;;;;;;;;5133622;28;20214;-89
2021/11/08 05:58:38;;;;;;;51.33;38.87;;;;;;;;;;5133654;28;20728;-89
2021/11/08 06:50:59;;;;;;;11.50;9.40;;;;;;;;;;5136751;27;20704;-89
2021/11/08 06:53:28;;;;;;;34.53;22.10;;;;;;;;;;5137029;27;20630;-89
2021/11/08 06:55:58;;;;;;;19.23;14.77;;;;;;;;;;5136738;27;20275;-89
2021/11/08 06:58:27;;;;;;;17.80;13.23;;;;;;;;;;5136817;27;20273;-89
2021/11/08 07:00:56;;;;;;;15.73;11.90;;;;;;;;;;5136821;27;20201;-89
2021/11/08 07:03:23;;;;;;;14.10;10.10;;;;;;;;;;5136669;27;20258;-89
2021/11/08 07:05:51;;;;;;;15.60;10.70;;;;;;;;;;5136715;27;20194;-89
2021/11/08 07:08:18;;;;;;;18.97;10.67;;;;;;;;;;5136607;27;20592;-90
2021/11/08 07:10:46;;;;;;;10.67;8.17;;;;;;;;;;5136594;27;20245;-89
2021/11/08 07:13:14;;;;;;;12.23;8.23;;;;;;;;;;5136659;27;20210;-90
2021/11/08 07:15:43;;;;;;;14.20;7.30;;;;;;;;;;5136543;27;20644;-90
2021/11/08 07:18:10;;;;;;;10.60;5.90;;;;;;;;;;5136260;27;20190;-90
2021/11/08 07:20:38;;;;;;;13.63;8.00;;;;;;;;;;5136431;27;20639;-89
2021/11/08 07:23:05;;;;;;;8.60;5.77;;;;;;;;;;5136266;27;20255;-90
2021/11/08 07:25:33;;;;;;;11.20;7.37;;;;;;;;;;5136271;27;20196;-90
2021/11/08 07:28:03;;;;;;;17.07;8.37;;;;;;;;;;5136053;27;20196;-90
2021/11/08 07:30:31;;;;;;;16.20;9.17;;;;;;;;;;5136280;27;20187;-91
2021/11/08 07:33:00;;;;;;;16.00;8.83;;;;;;;;;;5136651;27;20378;-91
2021/11/08 07:35:27;;;;;;;9.90;8.03;;;;;;;;;;5135923;27;20277;-91
2021/11/08 07:37:55;;;;;;;10.47;7.57;;;;;;;;;;5135712;27;20654;-91
2021/11/08 07:40:22;;;;;;;8.80;5.97;;;;;;;;;;5135957;27;20222;-91
2021/11/08 07:42:49;;;;;;;9.03;6.07;;;;;;;;;;5135119;27;20285;-90
2021/11/08 07:45:17;;;;;;;9.73;6.00;;;;;;;;;;5135607;27;20230;-91
2021/11/08 07:47:44;;;;;;;11.00;6.43;;;;;;;;;;5136332;27;20259;-91
2021/11/08 07:50:13;;;;;;;9.73;6.43;;;;;;;;;;5135836;27;20294;-91
2021/11/08 07:52:40;;;;;;;8.97;5.43;;;;;;;;;;5135946;27;20218;-91
2021/11/08 07:55:08;;;;;;;7.03;4.47;;;;;;;;;;5135696;27;20233;-91
2021/11/08 07:57:35;;;;;;;10.20;5.50;;;;;;;;;;5135643;27;20194;-91
2021/11/08 08:00:02;;;;;;;7.20;5.57;;;;;;;;;;5135723;27;20640;-91
2021/11/08 08:02:30;;;;;;;15.30;5.37;;;;;;;;;;5135423;27;20290;-91
2021/11/08 08:04:57;;;;;;;9.50;4.53;;;;;;;;;;5135738;27;20193;-91
2021/11/08 08:07:26;;;;;;;10.63;5.47;;;;;;;;;;5135501;27;20221;-91
2021/11/08 08:09:53;;;;;;;11.57;5.60;;;;;;;;;;5135334;27;20688;-92
2021/11/08 08:12:21;;;;;;;9.50;6.03;;;;;;;;;;5135372;27;20286;-91
2021/11/08 08:14:48;;;;;;;9.70;7.50;;;;;;;;;;5135227;27;20255;-91
2021/11/08 08:17:16;;;;;;;10.93;7.27;;;;;;;;;;5135530;27;20252;-91
2021/11/08 08:19:43;;;;;;;10.23;7.90;;;;;;;;;;5135807;27;20240;-91
2021/11/08 08:22:11;;;;;;;11.60;5.63;;;;;;;;;;5135256;27;20267;-91
2021/11/08 08:24:40;;;;;;;13.13;7.13;;;;;;;;;;5135219;27;20198;-91
2021/11/08 08:27:07;;;;;;;12.97;8.27;;;;;;;;;;5134859;27;20659;-91
2021/11/08 08:29:35;;;;;;;20.53;9.30;;;;;;;;;;5134809;27;20195;-91
2021/11/08 08:32:03;;;;;;;13.47;7.93;;;;;;;;;;5135073;27;20281;-91
2021/11/08 08:34:30;;;;;;;9.63;6.93;;;;;;;;;;5134879;27;20731;-92
2021/11/08 08:36:58;;;;;;;9.73;7.17;;;;;;;;;;5134567;27;20306;-91
2021/11/08 08:39:26;;;;;;;8.57;7.33;;;;;;;;;;5135373;27;20674;-92
2021/11/08 08:41:55;;;;;;;11.77;8.33;;;;;;;;;;5135016;27;20194;-91
2021/11/08 08:44:22;;;;;;;13.77;8.23;;;;;;;;;;5134814;27;20628;-91
2021/11/08 08:46:50;;;;;;;12.33;8.47;;;;;;;;;;5134386;27;20203;-91
2021/11/08 08:49:18;;;;;;;9.73;7.07;;;;;;;;;;5134342;27;20273;-91
2021/11/08 08:51:46;;;;;;;10.97;7.00;;;;;;;;;;5134535;27;20234;-92
2021/11/08 08:54:14;;;;;;;10.53;6.20;;;;;;;;;;5134385;27;20282;-92
2021/11/08 08:56:41;;;;;;;8.63;6.80;;;;;;;;;;5134189;27;20219;-91
2021/11/08 08:59:10;;;;;;;9.97;6.57;;;;;;;;;;5134240;27;20677;-92
2021/11/08 09:01:37;;;;;;;9.70;5.67;;;;;;;;;;5134398;27;20240;-91
2021/11/08 09:04:05;;;;;;;15.17;6.37;;;;;;;;;;5134431;27;20198;-92
2021/11/08 09:06:33;;;;;;;6.87;5.67;;;;;;;;;;5134506;27;20251;-92
2021/11/08 09:09:01;;;;;;;8.30;5.77;;;;;;;;;;5134342;27;20251;-92
2021/11/08 09:11:28;;;;;;;9.73;4.77;;;;;;;;;;5134251;27;20243;-92
2021/11/08 09:13:58;;;;;;;9.03;5.27;;;;;;;;;;5134313;27;20274;-92
2021/11/08 09:16:27;;;;;;;10.87;6.87;;;;;;;;;;5133958;27;20225;-92
2021/11/08 09:18:54;;;;;;;9.03;5.07;;;;;;;;;;5134329;27;20231;-92
2021/11/08 09:21:23;;;;;;;10.83;7.20;;;;;;;;;;5133932;27;20294;-92
2021/11/08 09:23:51;;;;;;;8.63;5.90;;;;;;;;;;5134027;27;20251;-92
2021/11/08 09:26:20;;;;;;;8.57;4.97;;;;;;;;;;5133833;27;20191;-92
2021/11/08 09:28:48;;;;;;;7.83;5.47;;;;;;;;;;5134376;27;20195;-93
2021/11/08 09:31:16;;;;;;;14.57;5.87;;;;;;;;;;5134547;27;20199;-92
2021/11/08 09:33:44;;;;;;;7.80;4.90;;;;;;;;;;5133807;27;20190;-92
2021/11/08 09:36:13;;;;;;;7.33;5.07;;;;;;;;;;5133749;27;20225;-92
2021/11/08 09:38:49;;;;;;;7.43;4.37;;;;;;;;;;5133690;27;20190;-93
2021/11/08 09:41:17;;;;;;;7.53;4.10;;;;;;;;;;5133909;27;20269;-92
2021/11/08 09:43:45;;;;;;;9.90;4.67;;;;;;;;;;5133829;27;20286;-92
2021/11/08 09:46:15;;;;;;;10.17;4.70;;;;;;;;;;5133684;27;20253;-92
2021/11/08 09:48:44;;;;;;;10.67;4.57;;;;;;;;;;5133744;27;20724;-92
2021/11/08 09:51:15;;;;;;;6.13;3.97;;;;;;;;;;5133808;27;20186;-92
2021/11/08 09:53:42;;;;;;;8.73;3.90;;;;;;;;;;5134507;27;20182;-93
2021/11/08 09:56:11;;;;;;;7.33;3.87;;;;;;;;;;5134163;27;20270;-91
2021/11/08 09:58:39;;;;;;;7.67;3.27;;;;;;;;;;5133719;27;20234;-93
2021/11/08 10:01:09;;;;;;;5.97;3.13;;;;;;;;;;5134355;27;20575;-92
2021/11/08 10:03:37;;;;;;;6.97;2.97;;;;;;;;;;5138463;27;20187;-92
2021/11/08 10:06:07;;;;;;;8.13;3.77;;;;;;;;;;5138269;27;20225;-91
2021/11/08 10:08:36;;;;;;;7.00;3.20;;;;;;;;;;5137661;27;20205;-92
2021/11/08 10:11:05;;;;;;;9.90;4.67;;;;;;;;;;5138182;27;20286;-92
2021/11/08 10:13:34;;;;;;;7.07;4.50;;;;;;;;;;5139061;27;20283;-93
2021/11/08 10:16:07;;;;;;;6.83;4.80;;;;;;;;;;5137546;27;20311;-92
2021/11/08 10:18:35;;;;;;;9.43;4.97;;;;;;;;;;5138114;27;20236;-92
2021/11/08 10:21:09;;;;;;;9.60;4.97;;;;;;;;;;5137882;27;20631;-92
2021/11/08 10:23:39;;;;;;;5.13;4.20;;;;;;;;;;5137452;27;20732;-92
2021/11/08 10:26:09;;;;;;;8.43;5.10;;;;;;;;;;5137262;27;20729;-94
2021/11/08 10:28:36;;;;;;;8.33;4.00;;;;;;;;;;5137588;27;20678;-92
2021/11/08 10:31:09;;;;;;;7.83;3.77;;;;;;;;;;5137192;27;20220;-92
2021/11/08 10:33:38;;;;;;;11.27;4.10;;;;;;;;;;5137175;27;20186;-92
2021/11/08 10:36:13;;;;;;;7.80;4.23;;;;;;;;;;5137015;27;20263;-92
2021/11/08 10:38:41;;;;;;;5.00;3.57;;;;;;;;;;5137126;27;20183;-94
2021/11/08 10:41:12;;;;;;;6.37;4.03;;;;;;;;;;5137242;27;20209;-93
2021/11/08 10:43:41;;;;;;;8.50;4.37;;;;;;;;;;5137710;27;20240;-92
2021/11/08 10:46:11;;;;;;;7.90;4.50;;;;;;;;;;5137196;27;20237;-93
2021/11/08 10:48:40;;;;;;;5.53;4.93;;;;;;;;;;5136988;27;20198;-93
2021/11/08 10:51:11;;;;;;;10.67;6.17;;;;;;;;;;5136904;27;20225;-92
2021/11/08 10:53:52;;;;;;;9.83;5.67;;;;;;;;;;5137213;27;20627;-92
2021/11/08 10:56:22;;;;;;;7.80;5.40;;;;;;;;;;5136820;27;20298;-93
2021/11/08 10:58:50;;;;;;;6.53;5.43;;;;;;;;;;5136904;27;20291;-93
2021/11/08 11:01:29;;;;;;;7.73;4.70;;;;;;;;;;5136839;27;20704;-93
2021/11/08 11:03:58;;;;;;;6.43;5.20;;;;;;;;;;5136749;27;20194;-92
2021/11/08 11:06:36;;;;;;;7.03;4.93;;;;;;;;;;5136895;27;20191;-93
2021/11/08 11:09:10;;;;;;;8.83;5.20;;;;;;;;;;5136692;27;20710;-93
2021/11/08 11:11:38;;;;;;;8.83;5.70;;;;;;;;;;5136575;27;20193;-92
2021/11/08 11:14:05;;;;;;;10.27;5.40;;;;;;;;;;5135089;27;20210;-92
2021/11/08 11:16:35;;;;;;;8.67;6.73;;;;;;;;;;5136188;27;20219;-93
2021/11/08 11:19:04;;;;;;;9.13;6.40;;;;;;;;;;5136292;27;20231;-93
2021/11/08 11:21:31;;;;;;;11.90;6.00;;;;;;;;;;5136227;27;20234;-93
2021/11/08 11:24:03;;;;;;;9.73;6.87;;;;;;;;;;5136450;27;20556;-93
2021/11/08 11:26:35;;;;;;;6.37;5.67;;;;;;;;;;5136156;27;20183;-93
2021/11/08 11:29:03;;;;;;;7.00;5.23;;;;;;;;;;5136092;27;20198;-94
2021/11/08 11:31:36;;;;;;;6.77;5.67;;;;;;;;;;5136062;27;20238;-93
2021/11/08 11:34:13;;;;;;;7.23;5.20;;;;;;;;;;5136624;27;20210;-94
2021/11/08 11:36:41;;;;;;;9.07;4.87;;;;;;;;;;5136085;27;20633;-94
2021/11/08 11:39:16;;;;;;;5.97;5.10;;;;;;;;;;5136240;27;20255;-93
2021/11/08 11:41:47;;;;;;;8.70;5.90;;;;;;;;;;5135855;27;20203;-94
2021/11/08 11:44:18;;;;;;;5.33;4.67;;;;;;;;;;5136193;27;20175;-93
2021/11/08 11:46:46;;;;;;;7.47;5.30;;;;;;;;;;5135612;27;20189;-92
2021/11/08 11:49:14;;;;;;;6.10;5.50;;;;;;;;;;5135773;27;20197;-94
2021/11/08 11:51:45;;;;;;;8.90;5.90;;;;;;;;;;5135635;27;20607;-93
2021/11/08 11:54:16;;;;;;;12.73;7.07;;;;;;;;;;5135909;27;20231;-94
2021/11/08 11:56:45;;;;;;;9.10;6.43;;;;;;;;;;5136133;27;20207;-93
2021/11/08 11:59:14;;;;;;;7.40;5.70;;;;;;;;;;5135926;27;20231;-94
2021/11/08 12:01:41;;;;;;;7.20;6.50;;;;;;;;;;5135623;27;20198;-94
2021/11/08 12:04:09;;;;;;;7.97;6.17;;;;;;;;;;5135782;27;20202;-94
2021/11/08 12:06:39;;;;;;;8.77;6.20;;;;;;;;;;5135196;27;20278;-94
2021/11/08 12:09:09;;;;;;;5.97;5.37;;;;;;;;;;5135946;27;20235;-94
2021/11/08 12:11:40;;;;;;;7.00;6.33;;;;;;;;;;5135671;27;20666;-94
2021/11/08 12:14:13;;;;;;;6.77;6.00;;;;;;;;;;5135575;27;20536;-95
2021/11/08 12:16:52;;;;;;;6.03;5.40;;;;;;;;;;5135161;27;20263;-93
2021/11/08 12:19:20;;;;;;;11.37;6.07;;;;;;;;;;5135196;27;20198;-94
2021/11/08 12:21:48;;;;;;;13.37;6.33;;;;;;;;;;5135344;27;20218;-95
2021/11/08 12:24:19;;;;;;;9.07;5.50;;;;;;;;;;5134892;27;20682;-94
2021/11/08 12:26:48;;;;;;;6.30;5.57;;;;;;;;;;5135221;27;20206;-94
2021/11/08 12:29:19;;;;;;;6.30;5.27;;;;;;;;;;5135461;27;20194;-94
2021/11/08 12:31:47;;;;;;;9.60;5.60;;;;;;;;;;5134842;27;20276;-94
2021/11/08 12:34:17;;;;;;;11.90;6.33;;;;;;;;;;5134844;27;20191;-94
2021/11/08 12:36:56;;;;;;;11.33;6.33;;;;;;;;;;5134785;27;20210;-94
2021/11/08 12:39:24;;;;;;;10.27;6.07;;;;;;;;;;5134894;27;20175;-94
2021/11/08 12:41:56;;;;;;;6.90;5.83;;;;;;;;;;5134910;27;20763;-94
2021/11/08 12:44:25;;;;;;;9.63;5.53;;;;;;;;;;5134912;27;20639;-94
2021/11/08 12:46:55;;;;;;;8.33;5.50;;;;;;;;;;5134552;27;20202;-94
2021/11/08 12:49:28;;;;;;;6.23;5.63;;;;;;;;;;5135166;27;20565;-95
2021/11/08 12:51:57;;;;;;;11.60;6.00;;;;;;;;;;5134730;27;20187;-94
2021/11/08 12:54:26;;;;;;;9.67;5.80;;;;;;;;;;5134672;27;20228;-95
2021/11/08 12:57:06;;;;;;;8.23;5.60;;;;;;;;;;5134772;27;20219;-94
2021/11/08 12:59:36;;;;;;;7.20;4.83;;;;;;;;;;5134657;27;20222;-95
2021/11/08 13:02:10;;;;;;;7.27;4.47;;;;;;;;;;5134274;27;20355;-94
2021/11/08 13:04:46;;;;;;;6.33;4.10;;;;;;;;;;5134457;27;20189;-94
2021/11/08 13:07:14;;;;;;;8.37;5.17;;;;;;;;;;5134595;27;20532;-94
2021/11/08 13:09:44;;;;;;;6.53;4.37;;;;;;;;;;5134230;27;20198;-95
2021/11/08 13:12:17;;;;;;;8.13;4.67;;;;;;;;;;5134522;27;20193;-94
2021/11/08 13:14:49;;;;;;;6.17;4.50;;;;;;;;;;5134373;27;20271;-95
2021/11/08 13:17:19;;;;;;;6.77;4.87;;;;;;;;;;5134288;27;20218;-95
2021/11/08 13:19:49;;;;;;;7.57;4.43;;;;;;;;;;5134049;27;20662;-94
2021/11/08 13:22:21;;;;;;;5.77;4.77;;;;;;;;;;5134184;27;20182;-95
2021/11/08 13:24:59;;;;;;;8.03;4.70;;;;;;;;;;5134478;27;20187;-94
2021/11/08 13:27:28;;;;;;;9.87;5.20;;;;;;;;;;5134522;27;20187;-94
2021/11/08 13:29:57;;;;;;;9.43;5.70;;;;;;;;;;5134076;27;20650;-94
2021/11/08 13:32:25;;;;;;;7.10;4.87;;;;;;;;;;5134102;27;20202;-93
2021/11/08 13:34:53;;;;;;;7.07;6.10;;;;;;;;;;5133791;27;20285;-94
2021/11/08 13:37:21;;;;;;;6.40;3.83;;;;;;;;;;5133456;27;20364;-94
2021/11/08 13:39:51;;;;;;;7.87;4.70;;;;;;;;;;5134018;27;20199;-94
2021/11/08 13:42:22;;;;;;;6.67;4.33;;;;;;;;;;5133940;27;20222;-94
2021/11/08 13:44:52;;;;;;;8.83;4.90;;;;;;;;;;5133829;27;20201;-95
2021/11/08 13:47:20;;;;;;;7.23;4.33;;;;;;;;;;5134087;27;20186;-94
2021/11/08 13:49:47;;;;;;;11.23;4.60;;;;;;;;;;5134050;27;20201;-94
2021/11/08 13:52:15;;;;;;;8.80;5.23;;;;;;;;;;5134100;27;20197;-94
2021/11/08 13:54:42;;;;;;;8.47;5.20;;;;;;;;;;5133942;27;20199;-94
2021/11/08 13:57:14;;;;;;;5.40;3.87;;;;;;;;;;5133736;27;20271;-94
2021/11/08 13:59:45;;;;;;;7.33;4.23;;;;;;;;;;5133371;27;20260;-94
2021/11/08 14:02:15;;;;;;;9.93;5.53;;;;;;;;;;5134656;27;20656;-93
2021/11/08 14:04:45;;;;;;;12.60;8.57;;;;;;;;;;5133600;27;20210;-95
2021/11/08 14:07:13;;;;;;;7.70;6.90;;;;;;;;;;5133788;27;20213;-95
2021/11/08 14:09:43;;;;;;;8.57;4.77;;;;;;;;;;5133625;27;20287;-94
2021/11/08 14:12:15;;;;;;;11.33;6.53;;;;;;;;;;5133804;27;20651;-94
2021/11/08 14:14:43;;;;;;;23.17;5.47;;;;;;;;;;5133654;27;20195;-93
2021/11/08 14:17:12;;;;;;;7.87;4.17;;;;;;;;;;5133963;27;20219;-93
2021/11/08 14:19:41;;;;;;;5.30;4.33;;;;;;;;;;5134118;27;20251;-94
2021/11/08 14:22:08;;;;;;;12.40;5.43;;;;;;;;;;5134209;27;20191;-94
2021/11/08 14:24:38;;;;;;;12.33;8.97;;;;;;;;;;5134253;27;20614;-93
2021/11/08 14:27:06;;;;;;;27.13;16.67;;;;;;;;;;5133339;27;20255;-94
2021/11/08 14:29:35;;;;;;;10.70;7.80;;;;;;;;;;5133921;27;20582;-93
2021/11/08 14:32:05;;;;;;;11.53;8.87;;;;;;;;;;5133440;27;20191;-94
2021/11/08 14:34:36;;;;;;;11.50;6.53;;;;;;;;;;5133393;27;20218;-94
2021/11/08 14:37:11;;;;;;;10.97;7.40;;;;;;;;;;5133111;27;20203;-93
2021/11/08 14:39:41;;;;;;;16.00;12.27;;;;;;;;;;5133509;27;20214;-94
2021/11/08 14:42:09;;;;;;;38.33;29.17;;;;;;;;;;5133079;28;20190;-93
2021/11/08 14:44:43;;;;;;;46.87;33.20;;;;;;;;;;5133878;28;20248;-93
2021/11/08 14:47:19;;;;;;;31.67;22.40;;;;;;;;;;5134093;27;20270;-93
2021/11/08 14:50:00;;;;;;;22.40;15.73;;;;;;;;;;5137408;27;20214;-94
2021/11/08 14:52:35;;;;;;;8.37;5.77;;;;;;;;;;5136935;27;20274;-93
2021/11/08 14:55:07;;;;;;;12.07;5.93;;;;;;;;;;5136799;27;20222;-93
2021/11/08 14:57:36;;;;;;;22.93;16.37;;;;;;;;;;5136985;27;20694;-93
2021/11/08 15:00:10;;;;;;;23.37;16.17;;;;;;;;;;5136626;27;20183;-93
2021/11/08 15:02:37;;;;;;;59.77;43.47;;;;;;;;;;5137093;27;20223;-93
2021/11/08 15:05:13;;;;;;;47.20;34.77;;;;;;;;;;5137126;27;20201;-94
2021/11/08 15:07:45;;;;;;;19.03;13.00;;;;;;;;;;5136751;27;20213;-92
2021/11/08 15:10:15;;;;;;;8.87;7.00;;;;;;;;;;5137004;27;20213;-93
2021/11/08 15:12:44;;;;;;;94.73;61.53;;;;;;;;;;5136661;27;20203;-94
2021/11/08 15:15:13;;;;;;;23.30;16.07;;;;;;;;;;5136915;27;20248;-93
2021/11/08 15:17:42;;;;;;;31.30;23.40;;;;;;;;;;5137051;27;20267;-94
2021/11/08 15:20:13;;;;;;;54.37;36.53;;;;;;;;;;5136617;27;20722;-93
2021/11/08 15:22:43;;;;;;;27.53;20.67;;;;;;;;;;5136507;27;20194;-92
2021/11/08 15:25:15;;;;;;;23.43;18.43;;;;;;;;;;5136999;27;20605;-93
2021/11/08 15:27:43;;;;;;;21.20;15.83;;;;;;;;;;5136394;27;20263;-93
2021/11/08 15:30:13;;;;;;;19.17;15.47;;;;;;;;;;5136285;27;20199;-93
2021/11/08 15:32:41;;;;;;;25.37;16.90;;;;;;;;;;5137052;27;20647;-94
2021/11/08 15:35:14;;;;;;;13.73;9.53;;;;;;;;;;5136135;27;20194;-93
2021/11/08 15:37:54;;;;;;;17.63;11.73;;;;;;;;;;5136181;27;20576;-93
2021/11/08 15:40:23;;;;;;;24.73;18.43;;;;;;;;;;5135938;27;20178;-93
2021/11/08 15:42:50;;;;;;;63.90;39.33;;;;;;;;;;5136126;27;20621;-93
2021/11/08 15:45:17;;;;;;;31.67;19.67;;;;;;;;;;5135781;27;20691;-94
2021/11/08 15:47:45;;;;;;;24.53;16.43;;;;;;;;;;5136419;27;20273;-93
2021/11/08 15:50:12;;;;;;;20.33;15.83;;;;;;;;;;5136099;27;20727;-93
2021/11/08 15:52:39;;;;;;;17.13;12.90;;;;;;;;;;5136021;27;20578;-93
2021/11/08 15:55:09;;;;;;;28.93;14.90;;;;;;;;;;5135663;27;20198;-93
2021/11/08 15:57:36;;;;;;;13.37;8.80;;;;;;;;;;5135315;27;20214;-93
2021/11/08 16:00:06;;;;;;;53.77;39.37;;;;;;;;;;5134702;27;20632;-92
2021/11/08 16:02:36;;;;;;;24.77;19.73;;;;;;;;;;5135334;27;20197;-93
2021/11/08 16:05:07;;;;;;;23.13;16.63;;;;;;;;;;5135665;27;20217;-93
2021/11/08 16:07:34;;;;;;;49.53;39.03;;;;;;;;;;5135338;27;20193;-93
2021/11/08 16:10:02;;;;;;;28.47;21.30;;;;;;;;;;5135314;27;20203;-93